createdAt,value
2022-09-09T00:00:55.334Z,100976.06
2022-09-09T00:03:28.349Z,100974.25
2022-09-09T00:05:58.962Z,100970.84
2022-09-09T00:08:43.863Z,100974.41
2022-09-09T00:11:14.947Z,100981.09
2022-09-09T00:13:50.303Z,100980.59
2022-09-09T00:16:28.716Z,100982.13
2022-09-09T00:19:22.859Z,100987.25
2022-09-09T00:22:15.277Z,100988.97
2022-09-09T00:24:50.635Z,100990.84
2022-09-09T00:27:31.249Z,100988.12
2022-09-09T00:30:15.374Z,100992.00
2022-09-09T00:32:43.299Z,100991.66
2022-09-09T00:35:11.300Z,100988.22
2022-09-09T00:37:39.933Z,100999.47
2022-09-09T00:40:23.635Z,100992.69
2022-09-09T00:43:08.005Z,101000.44
2022-09-09T00:45:44.829Z,101001.28
2022-09-09T00:48:13.583Z,101007.59
2022-09-09T00:51:07.601Z,101003.09
2022-09-09T00:53:38.774Z,101005.66
2022-09-09T00:56:23.025Z,101004.81
2022-09-09T00:59:09.588Z,101004.81
2022-09-09T01:01:40.825Z,101009.22
2022-09-09T01:04:17.962Z,101009.91
2022-09-09T01:06:53.461Z,101010.13
2022-09-09T01:09:33.669Z,101004.13
2022-09-09T01:12:16.252Z,101018.72
2022-09-09T01:14:51.954Z,101015.00
2022-09-09T01:17:24.834Z,101012.69
2022-09-09T01:19:59.807Z,101011.38
2022-09-09T01:22:58.705Z,101016.81
2022-09-09T01:26:05.520Z,101019.44
2022-09-09T01:28:36.899Z,101019.47
2022-09-09T01:31:09.308Z,101030.84
2022-09-09T01:33:38.508Z,101030.72
2022-09-09T01:36:13.407Z,101030.63
2022-09-09T01:38:42.124Z,101035.09
2022-09-09T01:41:10.235Z,101033.41
2022-09-09T01:43:39.458Z,101035.16
2022-09-09T01:46:07.441Z,101036.06
2022-09-09T01:48:37.493Z,101045.84
2022-09-09T01:51:06.202Z,101043.09
2022-09-09T01:53:33.958Z,101050.78
2022-09-09T01:56:11.447Z,101036.38
2022-09-09T01:59:07.899Z,101048.97
2022-09-09T02:01:42.894Z,101052.69
2022-09-09T02:04:38.666Z,101048.50
2022-09-09T02:07:41.396Z,101049.97
2022-09-09T02:10:21.278Z,101052.66
2022-09-09T02:13:06.183Z,101053.59
2022-09-09T02:15:44.054Z,101057.13
2022-09-09T02:18:16.156Z,101058.09
2022-09-09T02:20:47.726Z,101059.72
2022-09-09T02:23:16.548Z,101059.72
2022-09-09T02:25:47.600Z,101062.19
2022-09-09T02:28:18.205Z,101060.59
2022-09-09T02:30:48.498Z,101067.53
2022-09-09T02:33:17.417Z,101075.00
2022-09-09T02:35:47.650Z,101067.63
2022-09-09T02:38:17.833Z,101071.22
2022-09-09T02:40:47.021Z,101088.66
2022-09-09T02:43:19.999Z,101082.88
2022-09-09T02:45:56.361Z,101094.28
2022-09-09T02:48:58.478Z,101085.00
2022-09-09T02:51:56.452Z,101085.97
2022-09-09T02:54:33.088Z,101101.06
2022-09-09T02:57:10.043Z,101103.78
2022-09-09T02:59:41.741Z,101107.81
2022-09-09T03:02:11.480Z,101102.91
2022-09-09T03:04:40.362Z,101113.59
2022-09-09T03:07:08.720Z,101113.44
2022-09-09T03:09:36.943Z,101119.09
2022-09-09T03:12:08.422Z,101122.75
2022-09-09T03:14:36.665Z,101121.16
2022-09-09T03:17:04.612Z,101121.06
2022-09-09T03:19:33.349Z,101129.63
2022-09-09T03:22:01.642Z,101129.03
2022-09-09T03:24:31.258Z,101128.47
2022-09-09T03:26:59.227Z,101125.09
2022-09-09T03:29:27.715Z,101125.78
2022-09-09T03:31:56.120Z,101129.91
2022-09-09T03:34:23.956Z,101124.91
2022-09-09T03:36:52.165Z,101127.34
2022-09-09T03:39:19.964Z,101132.53
2022-09-09T03:41:49.626Z,101128.22
2022-09-09T03:44:18.438Z,101133.34
2022-09-09T03:46:46.103Z,101145.97
2022-09-09T03:49:15.362Z,101143.00
2022-09-09T03:51:43.870Z,101151.41
2022-09-09T03:54:12.345Z,101147.62
2022-09-09T03:56:42.698Z,101132.31
2022-09-09T03:59:11.444Z,101157.00
2022-09-09T04:01:39.276Z,101154.12
2022-09-09T04:04:08.977Z,101165.25
2022-09-09T04:06:36.779Z,101159.03
2022-09-09T04:09:04.599Z,101154.91
2022-09-09T04:11:33.124Z,101161.00
2022-09-09T04:14:01.354Z,101151.03
2022-09-09T04:16:30.556Z,101162.44
2022-09-09T04:18:59.891Z,101159.03
2022-09-09T04:21:28.314Z,101161.12
2022-09-09T04:23:56.419Z,101164.56
2022-09-09T04:26:26.197Z,101162.41
2022-09-09T04:28:53.907Z,101171.63
2022-09-09T04:31:24.925Z,101169.78
2022-09-09T04:33:54.131Z,101166.22
2022-09-09T04:36:22.426Z,101158.81
2022-09-09T04:38:50.710Z,101163.81
2022-09-09T04:41:19.570Z,101167.84
2022-09-09T04:43:48.691Z,101173.75
2022-09-09T04:46:19.834Z,101175.50
2022-09-09T04:48:49.934Z,101174.28
2022-09-09T04:51:18.129Z,101177.09
2022-09-09T04:53:48.104Z,101183.13
2022-09-09T04:56:19.319Z,101178.53
2022-09-09T04:58:47.668Z,101179.69
2022-09-09T05:01:21.020Z,101184.59
2022-09-09T05:03:50.265Z,101185.78
2022-09-09T05:06:20.536Z,101186.00
2022-09-09T05:08:50.667Z,101182.72
2022-09-09T05:11:27.021Z,101178.16
2022-09-09T05:13:55.637Z,101184.12
2022-09-09T05:16:24.577Z,101194.38
2022-09-09T05:18:52.653Z,101194.16
2022-09-09T05:21:24.243Z,101194.50
2022-09-09T05:23:52.767Z,101205.03
2022-09-09T05:26:22.740Z,101202.25
2022-09-09T05:28:50.878Z,101200.06
2022-09-09T05:31:20.413Z,101195.81
2022-09-09T05:33:50.641Z,101202.38
2022-09-09T05:36:21.605Z,101197.44
2022-09-09T05:38:51.241Z,101210.59
2022-09-09T05:41:21.229Z,101203.97
2022-09-09T05:43:50.125Z,101207.09
2022-09-09T05:46:23.695Z,101203.78
2022-09-09T05:48:53.386Z,101188.72
2022-09-09T05:51:27.846Z,101213.88
2022-09-09T05:53:59.694Z,101210.81
2022-09-09T05:56:30.264Z,101207.41
2022-09-09T05:59:01.276Z,101212.87
2022-09-09T06:01:32.728Z,101218.56
2022-09-09T06:04:01.654Z,101218.34
2022-09-09T06:06:37.942Z,101216.47
2022-09-09T06:09:10.841Z,101213.00
2022-09-09T06:11:41.317Z,101221.34
2022-09-09T06:14:10.021Z,101223.44
2022-09-09T06:16:43.548Z,101222.34
2022-09-09T06:19:14.043Z,101225.78
2022-09-09T06:21:42.408Z,101227.81
2022-09-09T06:24:10.510Z,101224.25
2022-09-09T06:26:43.852Z,101226.28
2022-09-09T06:29:12.569Z,101227.44
2022-09-09T06:31:41.466Z,101229.19
2022-09-09T06:34:10.645Z,101239.28
2022-09-09T06:36:40.271Z,101233.03
2022-09-09T06:39:14.866Z,101226.91
2022-09-09T06:41:44.031Z,101233.75
2022-09-09T06:44:16.566Z,101223.53
2022-09-09T06:46:49.234Z,101235.31
2022-09-09T06:49:17.521Z,101227.31
2022-09-09T06:51:45.877Z,101237.25
2022-09-09T06:54:14.024Z,101228.91
2022-09-09T06:56:46.917Z,101233.87
2022-09-09T06:59:18.068Z,101245.75
2022-09-09T07:01:46.716Z,101241.78
2022-09-09T07:04:15.143Z,101245.09
2022-09-09T07:06:45.636Z,101239.25
2022-09-09T07:09:17.176Z,101247.88
2022-09-09T07:11:47.507Z,101244.94
2022-09-09T07:14:16.691Z,101241.06
2022-09-09T07:16:47.123Z,101247.06
2022-09-09T07:19:16.017Z,101248.31
2022-09-09T07:21:44.940Z,101259.44
2022-09-09T07:24:13.856Z,101259.34
2022-09-09T07:26:42.796Z,101240.00
2022-09-09T07:29:10.654Z,101255.81
2022-09-09T07:31:41.281Z,101257.84
2022-09-09T07:34:09.994Z,101268.53
2022-09-09T07:36:40.494Z,101272.78
2022-09-09T07:39:14.169Z,101282.03
2022-09-09T07:41:45.832Z,101274.59
2022-09-09T07:44:17.624Z,101280.16
2022-09-09T07:46:46.910Z,101277.00
2022-09-09T07:49:16.343Z,101276.38
2022-09-09T07:51:46.983Z,101269.59
2022-09-09T07:54:18.664Z,101272.81
2022-09-09T07:56:47.840Z,101281.72
2022-09-09T07:59:16.004Z,101277.41
2022-09-09T08:01:46.833Z,101278.00
2022-09-09T08:04:17.887Z,101281.13
2022-09-09T08:06:48.378Z,101261.09
2022-09-09T08:09:18.511Z,101267.47
2022-09-09T08:11:48.310Z,101270.31
2022-09-09T08:14:19.182Z,101266.16
2022-09-09T08:16:49.427Z,101269.97
2022-09-09T08:19:18.864Z,101271.47
2022-09-09T08:21:47.218Z,101288.00
2022-09-09T08:24:16.897Z,101266.38
2022-09-09T08:26:50.516Z,101276.44
2022-09-09T08:29:19.516Z,101286.78
2022-09-09T08:31:55.688Z,101286.53
2022-09-09T08:34:24.114Z,101271.37
2022-09-09T08:36:52.897Z,101282.69
2022-09-09T08:39:23.149Z,101295.19
2022-09-09T08:42:07.850Z,101295.25
2022-09-09T08:44:48.911Z,101295.00
2022-09-09T08:47:48.580Z,101290.69
2022-09-09T08:50:17.057Z,101291.50
2022-09-09T08:53:17.657Z,101295.22
2022-09-09T08:58:48.179Z,101289.22
2022-09-09T09:01:38.445Z,101272.84
2022-09-09T09:04:54.288Z,101289.28
2022-09-09T09:08:05.477Z,101286.31
2022-09-09T09:10:55.686Z,101281.53
2022-09-09T09:13:43.996Z,101280.16
2022-09-09T09:16:33.607Z,101286.25
2022-09-09T09:19:02.203Z,101278.13
2022-09-09T09:21:31.360Z,101278.81
2022-09-09T09:24:01.558Z,101276.16
2022-09-09T09:26:36.558Z,101270.72
2022-09-09T09:29:14.525Z,101273.19
2022-09-09T09:31:55.920Z,101275.56
2022-09-09T09:34:25.709Z,101285.06
2022-09-09T09:37:06.318Z,101288.47
2022-09-09T09:42:28.618Z,101291.84
2022-09-09T09:44:56.778Z,101291.37
2022-09-09T09:47:25.024Z,101290.41
2022-09-09T09:50:03.544Z,101287.81
2022-09-09T09:52:33.714Z,101285.91
2022-09-09T09:55:08.455Z,101288.94
2022-09-09T09:57:37.658Z,101298.84
2022-09-09T10:00:10.275Z,101302.66
2022-09-09T10:02:44.951Z,101293.56
2022-09-09T10:05:32.630Z,101297.91
2022-09-09T10:08:12.333Z,101291.31
2022-09-09T10:11:04.348Z,101283.75
2022-09-09T10:13:52.181Z,101298.94
2022-09-09T10:16:53.670Z,101291.59
2022-09-09T10:19:34.866Z,101284.34
2022-09-09T10:22:07.993Z,101288.69
2022-09-09T10:24:59.114Z,101298.75
2022-09-09T10:28:01.545Z,101294.16
2022-09-09T10:31:02.997Z,101294.66
2022-09-09T10:33:52.272Z,101303.00
2022-09-09T10:36:26.440Z,101290.19
2022-09-09T10:39:14.829Z,101295.97
2022-09-09T10:42:18.066Z,101306.97
2022-09-09T10:45:05.934Z,101291.28
2022-09-09T10:47:58.577Z,101277.94
2022-09-09T10:51:05.104Z,101295.44
2022-09-09T10:53:47.802Z,101306.22
2022-09-09T10:56:19.989Z,101298.44
2022-09-09T10:59:04.230Z,101297.03
2022-09-09T11:01:41.166Z,101306.88
2022-09-09T11:04:20.761Z,101301.75
2022-09-09T11:06:55.629Z,101303.94
2022-09-09T11:09:27.819Z,101301.19
2022-09-09T11:11:58.070Z,101286.41
2022-09-09T11:14:34.112Z,101289.31
2022-09-09T11:17:12.252Z,101298.50
2022-09-09T11:19:44.058Z,101300.59
2022-09-09T11:22:22.631Z,101302.66
2022-09-09T11:24:58.284Z,101302.91
2022-09-09T11:27:42.090Z,101301.53
2022-09-09T11:30:51.644Z,101294.97
2022-09-09T11:33:38.877Z,101291.84
2022-09-09T11:36:15.922Z,101286.62
2022-09-09T11:38:52.552Z,101293.59
2022-09-09T11:41:22.960Z,101294.84
2022-09-09T11:43:54.835Z,101297.25
2022-09-09T11:46:35.115Z,101301.34
2022-09-09T11:49:06.295Z,101301.19
2022-09-09T11:51:36.598Z,101299.81
2022-09-09T11:54:40.647Z,101304.31
2022-09-09T11:57:24.125Z,101306.59
2022-09-09T11:59:56.454Z,101311.56
2022-09-09T12:02:27.961Z,101308.53
2022-09-09T12:05:09.892Z,101300.38
2022-09-09T12:07:43.743Z,101303.41
2022-09-09T12:10:37.620Z,101288.81
2022-09-09T12:13:26.871Z,101290.94
2022-09-09T12:16:03.914Z,101296.72
2022-09-09T12:18:40.614Z,101297.38
2022-09-09T12:21:42.079Z,101313.47
2022-09-09T12:24:14.453Z,101296.03
2022-09-09T12:26:54.507Z,101292.59
2022-09-09T12:29:48.378Z,101288.13
2022-09-09T12:32:21.669Z,101279.19
2022-09-09T12:34:52.193Z,101272.47
2022-09-09T12:37:30.866Z,101276.72
2022-09-09T12:40:00.779Z,101273.87
2022-09-09T12:42:31.569Z,101277.34
2022-09-09T12:45:02.103Z,101281.34
2022-09-09T12:47:42.004Z,101283.72
2022-09-09T12:50:29.063Z,101287.03
2022-09-09T12:53:03.273Z,101292.09
2022-09-09T12:55:34.925Z,101277.47
2022-09-09T12:58:06.851Z,101278.84
2022-09-09T13:00:36.168Z,101277.69
2022-09-09T13:03:18.216Z,101258.69
2022-09-09T13:05:48.094Z,101265.56
2022-09-09T13:08:21.113Z,101257.44
2022-09-09T13:11:00.274Z,101253.22
2022-09-09T13:13:42.406Z,101252.53
2022-09-09T13:16:24.323Z,101257.78
2022-09-09T13:18:52.974Z,101274.88
2022-09-09T13:21:21.065Z,101267.72
2022-09-09T13:23:53.398Z,101283.44
2022-09-09T13:26:28.928Z,101276.84
2022-09-09T13:29:08.930Z,101288.38
2022-09-09T13:31:38.596Z,101279.91
2022-09-09T13:34:31.547Z,101290.44
2022-09-09T13:37:08.850Z,101284.75
2022-09-09T13:39:38.858Z,101291.50
2022-09-09T13:42:08.377Z,101288.38
2022-09-09T13:44:39.964Z,101293.63
2022-09-09T13:47:14.206Z,101296.91
2022-09-09T13:49:42.501Z,101295.16
2022-09-09T13:52:18.157Z,101295.00
2022-09-09T13:54:53.414Z,101288.97
2022-09-09T13:57:25.715Z,101293.31
2022-09-09T14:00:11.379Z,101292.19
2022-09-09T14:02:40.448Z,101284.09
2022-09-09T14:05:08.233Z,101273.03
2022-09-09T14:07:36.004Z,101271.69
2022-09-09T14:10:04.421Z,101281.13
2022-09-09T14:12:32.310Z,101269.84
2022-09-09T14:15:01.164Z,101266.41
2022-09-09T14:17:31.674Z,101269.97
2022-09-09T14:19:59.820Z,101273.69
2022-09-09T14:22:27.671Z,101263.53
2022-09-09T14:24:55.840Z,101258.59
2022-09-09T14:27:23.598Z,101261.16
2022-09-09T14:29:51.288Z,101271.03
2022-09-09T14:32:19.406Z,101270.97
2022-09-09T14:34:47.178Z,101278.31
2022-09-09T14:37:15.135Z,101267.50
2022-09-09T14:39:45.406Z,101279.56
2022-09-09T14:42:13.257Z,101272.81
2022-09-09T14:44:42.027Z,101279.66
2022-09-09T14:47:10.499Z,101281.03
2022-09-09T14:49:40.593Z,101287.97
2022-09-09T14:52:10.935Z,101279.69
2022-09-09T14:54:38.678Z,101285.47
2022-09-09T14:57:06.539Z,101295.09
2022-09-09T14:59:35.693Z,101282.16
2022-09-09T15:02:05.616Z,101276.12
2022-09-09T15:04:33.694Z,101284.03
2022-09-09T15:07:01.971Z,101275.56
2022-09-09T15:09:30.493Z,101282.41
2022-09-09T15:11:58.261Z,101281.37
2022-09-09T15:14:27.411Z,101290.63
2022-09-09T15:16:55.326Z,101288.69
2022-09-09T15:19:23.299Z,101292.72
2022-09-09T15:21:51.503Z,101291.37
2022-09-09T15:24:19.294Z,101302.06
2022-09-09T15:26:47.094Z,101306.50
2022-09-09T15:29:15.213Z,101306.25
2022-09-09T15:31:43.000Z,101312.34
2022-09-09T15:34:10.805Z,101317.94
2022-09-09T15:36:40.974Z,101312.69
2022-09-09T15:39:14.122Z,101309.50
2022-09-09T15:41:46.569Z,101315.94
2022-09-09T15:44:14.591Z,101314.97
2022-09-09T15:46:50.052Z,101318.41
2022-09-09T15:49:23.447Z,101317.19
2022-09-09T15:51:56.768Z,101320.91
2022-09-09T15:54:25.336Z,101317.69
2022-09-09T15:56:58.391Z,101325.75
2022-09-09T15:59:29.200Z,101335.00
2022-09-09T16:04:43.408Z,101332.44
2022-09-09T16:07:11.122Z,101333.66
2022-09-09T16:09:39.128Z,101347.31
2022-09-09T16:12:13.247Z,101345.16
2022-09-09T16:14:40.967Z,101347.72
2022-09-09T16:17:09.293Z,101337.03
2022-09-09T16:19:37.199Z,101351.69
2022-09-09T16:22:05.834Z,101350.53
2022-09-09T16:24:33.936Z,101355.41
2022-09-09T16:27:01.709Z,101364.50
2022-09-09T16:29:29.695Z,101342.59
2022-09-09T16:32:02.841Z,101360.06
2022-09-09T16:34:32.291Z,101372.47
2022-09-09T16:37:00.647Z,101368.22
2022-09-09T16:39:28.439Z,101371.94
2022-09-09T16:41:56.261Z,101367.00
2022-09-09T16:44:24.465Z,101372.50
2022-09-09T16:46:56.849Z,101376.50
2022-09-09T16:49:29.719Z,101378.50
2022-09-09T16:52:00.272Z,101384.44
2022-09-09T16:54:31.388Z,101383.56
2022-09-09T16:57:00.821Z,101385.87
2022-09-09T16:59:29.118Z,101389.84
2022-09-09T17:01:57.057Z,101392.66
2022-09-09T17:04:29.237Z,101386.00
2022-09-09T17:06:58.668Z,101386.66
2022-09-09T17:09:30.533Z,101393.63
2022-09-09T17:11:59.737Z,101395.44
2022-09-09T17:14:27.664Z,101400.69
2022-09-09T17:16:55.497Z,101403.94
2022-09-09T17:19:23.596Z,101396.50
2022-09-09T17:22:16.630Z,101409.72
2022-09-09T17:24:40.132Z,101397.06
2022-09-09T17:27:08.342Z,101408.50
2022-09-09T17:29:37.193Z,101413.31
2022-09-09T17:32:06.659Z,101421.19
2022-09-09T17:34:36.225Z,101410.34
2022-09-09T17:37:04.299Z,101413.69
2022-09-09T17:39:32.595Z,101408.41
2022-09-09T17:42:00.540Z,101411.03
2022-09-09T17:44:33.555Z,101420.44
2022-09-09T17:47:02.195Z,101420.44
2022-09-09T17:49:29.951Z,101407.69
2022-09-09T17:51:57.952Z,101422.09
2022-09-09T17:54:26.114Z,101425.66
2022-09-09T17:56:53.899Z,101430.88
2022-09-09T17:59:21.743Z,101429.47
2022-09-09T18:01:51.259Z,101418.22
2022-09-09T18:04:20.232Z,101420.66
2022-09-09T18:06:50.964Z,101424.38
2022-09-09T18:09:23.518Z,101416.03
2022-09-09T18:11:54.799Z,101422.41
2022-09-09T18:14:26.625Z,101416.03
2022-09-09T18:16:54.723Z,101417.50
2022-09-09T18:19:25.836Z,101424.00
2022-09-09T18:21:56.427Z,101420.75
2022-09-09T18:24:27.066Z,101425.69
2022-09-09T18:26:55.513Z,101421.91
2022-09-09T18:29:25.834Z,101420.50
2022-09-09T18:31:55.258Z,101422.97
2022-09-09T18:34:26.130Z,101416.31
2022-09-09T18:36:56.291Z,101423.72
2022-09-09T18:39:28.832Z,101426.44
2022-09-09T18:42:00.818Z,101429.66
2022-09-09T18:44:36.852Z,101425.16
2022-09-09T18:47:04.707Z,101433.25
2022-09-09T18:49:33.605Z,101437.34
2022-09-09T18:52:03.072Z,101430.75
2022-09-09T18:54:31.635Z,101436.25
2022-09-09T18:57:01.116Z,101437.50
2022-09-09T18:59:29.152Z,101430.91
2022-09-09T19:01:58.433Z,101434.72
2022-09-09T19:04:27.668Z,101441.22
2022-09-09T19:06:58.415Z,101448.84
2022-09-09T19:09:29.840Z,101441.09
2022-09-09T19:11:59.720Z,101442.84
2022-09-09T19:14:28.335Z,101436.97
2022-09-09T19:16:56.688Z,101450.37
2022-09-09T19:19:28.031Z,101442.22
2022-09-09T19:21:59.014Z,101449.50
2022-09-09T19:24:32.576Z,101453.41
2022-09-09T19:27:03.607Z,101448.59
2022-09-09T19:29:35.015Z,101451.41
2022-09-09T19:33:13.063Z,101454.22
2022-09-09T19:34:52.874Z,101453.06
2022-09-09T19:37:21.294Z,101462.97
2022-09-09T19:39:50.798Z,101464.97
2022-09-09T19:42:18.754Z,101454.88
2022-09-09T19:44:47.062Z,101455.44
2022-09-09T19:47:15.360Z,101458.28
2022-09-09T19:49:47.064Z,101466.63
2022-09-09T19:52:17.345Z,101470.72
2022-09-09T19:54:46.990Z,101470.16
2022-09-09T19:57:15.268Z,101471.97
2022-09-09T19:59:43.177Z,101469.19
2022-09-09T20:02:15.995Z,101467.25
2022-09-09T20:04:44.998Z,101464.97
2022-09-09T20:07:13.002Z,101457.47
2022-09-09T20:09:40.794Z,101477.66
2022-09-09T20:12:09.008Z,101475.38
2022-09-09T20:14:39.646Z,101478.06
2022-09-09T20:17:09.308Z,101474.66
2022-09-09T20:19:37.054Z,101486.28
2022-09-09T20:22:04.910Z,101476.47
2022-09-09T20:24:33.099Z,101486.53
2022-09-09T20:27:00.801Z,101477.06
2022-09-09T20:29:28.692Z,101482.16
2022-09-09T20:31:56.974Z,101485.03
2022-09-09T20:34:27.484Z,101476.84
2022-09-09T20:36:56.415Z,101476.94
2022-09-09T20:39:24.584Z,101493.41
2022-09-09T20:41:52.586Z,101495.22
2022-09-09T20:44:24.492Z,101486.19
2022-09-09T20:47:02.968Z,101493.16
2022-09-09T20:49:31.304Z,101500.75
2022-09-09T20:51:59.941Z,101493.09
2022-09-09T20:54:30.871Z,101495.06
2022-09-09T20:57:00.701Z,101498.81
2022-09-09T20:59:31.319Z,101498.97
2022-09-09T21:02:09.713Z,101506.62
2022-09-09T21:04:38.753Z,101503.66
2022-09-09T21:07:07.804Z,101509.41
2022-09-09T21:09:35.734Z,101513.78
2022-09-09T21:12:03.718Z,101505.56
2022-09-09T21:14:32.837Z,101509.22
2022-09-09T21:17:00.581Z,101516.50
2022-09-09T21:19:28.685Z,101499.72
2022-09-09T21:21:57.445Z,101514.06
2022-09-09T21:24:25.170Z,101518.31
2022-09-09T21:26:55.594Z,101515.81
2022-09-09T21:29:24.442Z,101527.97
2022-09-09T21:31:53.414Z,101524.59
2022-09-09T21:34:21.207Z,101512.66
2022-09-09T21:36:49.537Z,101519.53
2022-09-09T21:39:17.636Z,101519.25
2022-09-09T21:41:45.573Z,101521.31
2022-09-09T21:44:14.763Z,101514.19
2022-09-09T21:46:44.160Z,101521.16
2022-09-09T21:49:12.037Z,101524.47
2022-09-09T21:54:25.945Z,101519.16
2022-09-09T21:56:54.696Z,101524.44
2022-09-09T21:59:22.408Z,101529.69
2022-09-09T22:01:50.323Z,101516.47
2022-09-09T22:04:18.610Z,101521.84
2022-09-09T22:06:46.302Z,101520.88
2022-09-09T22:09:14.104Z,101505.41
2022-09-09T22:11:42.696Z,101523.16
2022-09-09T22:14:10.382Z,101527.34
2022-09-09T22:16:38.072Z,101524.78
2022-09-09T22:19:09.356Z,101537.38
2022-09-09T22:21:37.077Z,101531.06
2022-09-09T22:24:05.951Z,101534.97
2022-09-09T22:26:36.579Z,101525.19
2022-09-09T22:29:05.699Z,101532.66
2022-09-09T22:31:34.721Z,101527.81
2022-09-09T22:34:03.759Z,101533.84
2022-09-09T22:36:33.013Z,101533.88
2022-09-09T22:39:02.242Z,101538.56
2022-09-09T22:41:30.405Z,101533.44
2022-09-09T22:43:59.175Z,101527.25
2022-09-09T22:46:27.063Z,101538.13
2022-09-09T22:48:55.319Z,101525.28
2022-09-09T22:51:23.118Z,101527.78
2022-09-09T22:53:50.910Z,101527.72
2022-09-09T22:56:20.620Z,101525.97
2022-09-09T22:58:52.914Z,101528.69
2022-09-09T23:01:21.320Z,101527.94
2022-09-09T23:03:50.798Z,101532.16
2022-09-09T23:06:22.823Z,101532.16
2022-09-09T23:09:02.560Z,101534.00
2022-09-09T23:11:34.391Z,101537.53
2022-09-09T23:14:04.945Z,101533.19
2022-09-09T23:16:39.963Z,101531.53
2022-09-09T23:19:11.077Z,101539.47
2022-09-09T23:24:26.483Z,101531.78
2022-09-09T23:26:54.392Z,101532.63
2022-09-09T23:29:22.163Z,101533.44
2022-09-09T23:31:50.285Z,101533.19
2022-09-09T23:34:18.394Z,101530.44
2022-09-09T23:36:46.370Z,101535.34
2022-09-09T23:39:14.483Z,101534.69
2022-09-09T23:41:42.295Z,101535.78
2022-09-09T23:44:12.397Z,101535.97
2022-09-09T23:46:40.632Z,101543.13
2022-09-09T23:49:09.949Z,101536.28
2022-09-09T23:51:40.176Z,101542.66
2022-09-09T23:54:10.256Z,101539.31
2022-09-09T23:56:40.774Z,101534.59
2022-09-09T23:59:09.795Z,101550.22
